sensor_id;sensor_type;location;lat;lon;timestamp;pressure;altitude;pressure_sealevel;temperature;humidity
30463;BME280;17256;43.618;25.336;2023-05-10T00:01:28;101102.91;;;9.10;100.00
30463;BME280;17256;43.618;25.336;2023-05-10T00:03:54;101099.16;;;9.03;100.00
30463;BME280;17256;43.618;25.336;2023-05-10T00:06:20;101136.75;;;9.25;100.00
30463;BME280;17256;43.618;25.336;2023-05-10T00:08:45;101077.97;;;8.89;100.00
30463;BME280;17256;43.618;25.336;2023-05-10T00:11:11;101048.28;;;8.70;100.00
30463;BME280;17256;43.618;25.336;2023-05-10T00:13:36;101182.94;;;9.37;100.00
30463;BME280;17256;43.618;25.336;2023-05-10T00:16:02;101106.34;;;9.04;100.00
30463;BME280;17256;43.618;25.336;2023-05-10T00:18:27;101176.94;;;9.41;100.00
30463;BME280;17256;43.618;25.336;2023-05-10T00:20:53;101161.88;;;9.37;100.00
30463;BME280;17256;43.618;25.336;2023-05-10T00:23:18;101088.25;;;8.87;100.00
30463;BME280;17256;43.618;25.336;2023-05-10T00:25:44;101162.78;;;9.30;100.00
30463;BME280;17256;43.618;25.336;2023-05-10T00:28:10;101039.06;;;8.54;100.00
30463;BME280;17256;43.618;25.336;2023-05-10T00:30:36;101112.22;;;8.93;100.00
30463;BME280;17256;43.618;25.336;2023-05-10T00:33:02;101142.59;;;9.22;100.00
30463;BME280;17256;43.618;25.336;2023-05-10T00:35:28;101222.63;;;9.57;100.00
30463;BME280;17256;43.618;25.336;2023-05-10T00:37:53;101077.06;;;8.57;100.00
30463;BME280;17256;43.618;25.336;2023-05-10T00:40:19;101198.91;;;9.33;100.00
30463;BME280;17256;43.618;25.336;2023-05-10T00:42:50;101100.59;;;8.83;100.00
30463;BME280;17256;43.618;25.336;2023-05-10T00:45:16;101131.53;;;9.00;100.00
30463;BME280;17256;43.618;25.336;2023-05-10T00:47:41;101174.47;;;9.15;100.00
30463;BME280;17256;43.618;25.336;2023-05-10T00:50:07;101058.78;;;8.33;100.00
30463;BME280;17256;43.618;25.336;2023-05-10T00:52:34;101073.50;;;8.49;100.00
30463;BME280;17256;43.618;25.336;2023-05-10T00:55:00;101258.31;;;9.41;100.00
30463;BME280;17256;43.618;25.336;2023-05-10T00:57:25;101101.38;;;8.36;100.00
30463;BME280;17256;43.618;25.336;2023-05-10T00:59:51;101158.81;;;8.77;100.00
30463;BME280;17256;43.618;25.336;2023-05-10T01:02:17;101148.38;;;8.64;100.00
30463;BME280;17256;43.618;25.336;2023-05-10T01:04:43;101239.78;;;8.96;100.00
30463;BME280;17256;43.618;25.336;2023-05-10T01:07:08;101220.06;;;9.00;100.00
30463;BME280;17256;43.618;25.336;2023-05-10T01:09:34;101058.81;;;8.01;100.00
30463;BME280;17256;43.618;25.336;2023-05-10T01:12:00;101015.56;;;7.64;100.00
30463;BME280;17256;43.618;25.336;2023-05-10T01:14:28;101096.91;;;8.11;100.00
30463;BME280;17256;43.618;25.336;2023-05-10T01:16:54;101130.09;;;8.24;100.00
30463;BME280;17256;43.618;25.336;2023-05-10T01:19:26;101050.09;;;7.81;100.00
30463;BME280;17256;43.618;25.336;2023-05-10T01:33:01;101279.63;;;9.22;100.00
30463;BME280;17256;43.618;25.336;2023-05-10T01:35:47;100906.22;;;7.15;100.00
30463;BME280;17256;43.618;25.336;2023-05-10T01:44:24;101277.94;;;9.21;100.00
30463;BME280;17256;43.618;25.336;2023-05-10T01:47:03;101252.56;;;9.11;100.00
30463;BME280;17256;43.618;25.336;2023-05-10T01:49:33;100821.38;;;6.60;100.00
30463;BME280;17256;43.618;25.336;2023-05-10T01:52:37;100844.91;;;6.44;100.00
30463;BME280;17256;43.618;25.336;2023-05-10T01:55:09;101152.00;;;8.40;100.00
30463;BME280;17256;43.618;25.336;2023-05-10T01:57:37;101094.69;;;8.14;100.00
30463;BME280;17256;43.618;25.336;2023-05-10T02:00:07;101057.78;;;7.94;100.00
30463;BME280;17256;43.618;25.336;2023-05-10T02:02:44;101113.50;;;8.09;100.00
30463;BME280;17256;43.618;25.336;2023-05-10T02:05:12;100990.47;;;7.44;100.00
30463;BME280;17256;43.618;25.336;2023-05-10T02:07:39;100949.59;;;7.02;100.00
30463;BME280;17256;43.618;25.336;2023-05-10T02:10:07;101251.91;;;8.85;100.00
30463;BME280;17256;43.618;25.336;2023-05-10T02:12:46;101131.47;;;8.12;100.00
30463;BME280;17256;43.618;25.336;2023-05-10T02:15:16;101069.91;;;7.75;100.00
30463;BME280;17256;43.618;25.336;2023-05-10T02:17:43;101108.53;;;7.88;100.00
30463;BME280;17256;43.618;25.336;2023-05-10T02:20:10;101079.63;;;7.61;100.00
30463;BME280;17256;43.618;25.336;2023-05-10T02:22:37;101073.47;;;7.51;100.00
30463;BME280;17256;43.618;25.336;2023-05-10T02:25:04;101077.91;;;7.60;100.00
30463;BME280;17256;43.618;25.336;2023-05-10T02:27:31;100968.31;;;6.89;100.00
30463;BME280;17256;43.618;25.336;2023-05-10T02:29:59;100980.59;;;6.93;100.00
30463;BME280;17256;43.618;25.336;2023-05-10T02:32:27;100972.66;;;6.65;100.00
30463;BME280;17256;43.618;25.336;2023-05-10T02:34:53;100815.06;;;5.67;100.00
30463;BME280;17256;43.618;25.336;2023-05-10T02:37:20;101019.69;;;6.93;100.00
30463;BME280;17256;43.618;25.336;2023-05-10T02:39:49;101081.09;;;7.31;100.00
30463;BME280;17256;43.618;25.336;2023-05-10T02:42:22;100772.09;;;5.52;100.00
30463;BME280;17256;43.618;25.336;2023-05-10T02:44:50;101257.03;;;8.39;100.00
30463;BME280;17256;43.618;25.336;2023-05-10T02:47:18;101087.59;;;7.30;100.00
30463;BME280;17256;43.618;25.336;2023-05-10T02:49:44;101034.25;;;7.02;100.00
30463;BME280;17256;43.618;25.336;2023-05-10T02:52:10;100927.53;;;6.37;100.00
30463;BME280;17256;43.618;25.336;2023-05-10T02:54:44;101117.94;;;7.69;100.00
30463;BME280;17256;43.618;25.336;2023-05-10T02:57:16;101011.72;;;7.08;100.00
30463;BME280;17256;43.618;25.336;2023-05-10T02:59:43;101008.63;;;7.03;100.00
30463;BME280;17256;43.618;25.336;2023-05-10T03:02:13;101121.81;;;7.67;100.00
30463;BME280;17256;43.618;25.336;2023-05-10T03:04:39;101097.38;;;7.57;100.00
30463;BME280;17256;43.618;25.336;2023-05-10T03:07:05;101010.19;;;7.14;100.00
30463;BME280;17256;43.618;25.336;2023-05-10T03:09:35;100751.78;;;5.81;100.00
30463;BME280;17256;43.618;25.336;2023-05-10T03:15:10;100951.44;;;6.93;100.00
30463;BME280;17256;43.618;25.336;2023-05-10T03:17:43;101109.91;;;7.92;100.00
30463;BME280;17256;43.618;25.336;2023-05-10T03:20:21;100961.38;;;7.02;100.00
30463;BME280;17256;43.618;25.336;2023-05-10T03:22:51;101114.53;;;8.00;100.00
30463;BME280;17256;43.618;25.336;2023-05-10T03:25:20;101288.38;;;8.85;100.00
30463;BME280;17256;43.618;25.336;2023-05-10T03:27:47;100919.63;;;6.68;100.00
30463;BME280;17256;43.618;25.336;2023-05-10T03:30:14;100916.59;;;6.71;100.00
30463;BME280;17256;43.618;25.336;2023-05-10T03:32:41;100817.22;;;6.23;100.00
30463;BME280;17256;43.618;25.336;2023-05-10T03:35:11;101269.41;;;8.68;100.00
30463;BME280;17256;43.618;25.336;2023-05-10T03:37:37;101035.97;;;7.11;100.00
30463;BME280;17256;43.618;25.336;2023-05-10T03:40:04;101057.53;;;7.22;100.00
30463;BME280;17256;43.618;25.336;2023-05-10T03:42:33;100829.91;;;5.98;100.00
30463;BME280;17256;43.618;25.336;2023-05-10T03:44:58;100891.91;;;6.38;100.00
30463;BME280;17256;43.618;25.336;2023-05-10T03:47:25;100874.34;;;6.33;100.00
30463;BME280;17256;43.618;25.336;2023-05-10T03:49:51;100937.34;;;6.56;100.00
30463;BME280;17256;43.618;25.336;2023-05-10T03:52:37;100962.50;;;6.92;100.00
30463;BME280;17256;43.618;25.336;2023-05-10T03:58:51;101013.66;;;7.32;100.00
30463;BME280;17256;43.618;25.336;2023-05-10T04:01:39;101075.88;;;7.54;100.00
30463;BME280;17256;43.618;25.336;2023-05-10T04:04:09;101015.06;;;6.86;100.00
30463;BME280;17256;43.618;25.336;2023-05-10T04:07:26;101286.31;;;8.47;100.00
30463;BME280;17256;43.618;25.336;2023-05-10T04:16:02;101287.28;;;8.29;100.00
30463;BME280;17256;43.618;25.336;2023-05-10T04:31:45;101271.59;;;8.56;100.00
30463;BME280;17256;43.618;25.336;2023-05-10T04:34:44;100909.09;;;6.31;100.00
30463;BME280;17256;43.618;25.336;2023-05-10T04:37:09;101095.16;;;7.53;100.00
30463;BME280;17256;43.618;25.336;2023-05-10T04:43:55;100962.34;;;6.93;100.00
30463;BME280;17256;43.618;25.336;2023-05-10T04:48:07;101288.88;;;9.21;100.00
30463;BME280;17256;43.618;25.336;2023-05-10T04:51:47;100957.63;;;7.60;100.00
30463;BME280;17256;43.618;25.336;2023-05-10T04:55:46;101057.53;;;8.60;100.00
30463;BME280;17256;43.618;25.336;2023-05-10T04:59:29;101297.34;;;10.37;100.00
30463;BME280;17256;43.618;25.336;2023-05-10T05:03:57;100888.28;;;7.69;100.00
30463;BME280;17256;43.618;25.336;2023-05-10T05:08:14;100968.03;;;7.89;100.00
30463;BME280;17256;43.618;25.336;2023-05-10T05:12:01;101111.69;;;8.89;100.00
30463;BME280;17256;43.618;25.336;2023-05-10T05:14:27;101137.03;;;9.00;100.00
30463;BME280;17256;43.618;25.336;2023-05-10T05:16:52;101125.56;;;8.96;100.00
30463;BME280;17256;43.618;25.336;2023-05-10T05:19:18;101151.50;;;9.24;100.00
30463;BME280;17256;43.618;25.336;2023-05-10T05:21:44;101039.41;;;8.68;100.00
30463;BME280;17256;43.618;25.336;2023-05-10T05:24:09;101093.56;;;8.97;100.00
30463;BME280;17256;43.618;25.336;2023-05-10T05:26:37;101101.88;;;9.11;100.00
30463;BME280;17256;43.618;25.336;2023-05-10T05:29:03;101128.50;;;9.34;100.00
30463;BME280;17256;43.618;25.336;2023-05-10T05:31:28;101137.38;;;9.36;100.00
30463;BME280;17256;43.618;25.336;2023-05-10T05:33:54;101088.28;;;9.26;100.00
30463;BME280;17256;43.618;25.336;2023-05-10T05:36:21;101185.63;;;9.84;100.00
30463;BME280;17256;43.618;25.336;2023-05-10T05:38:46;101219.13;;;10.33;100.00
30463;BME280;17256;43.618;25.336;2023-05-10T05:41:12;101064.69;;;9.48;100.00
30463;BME280;17256;43.618;25.336;2023-05-10T05:43:38;101108.81;;;9.84;100.00
30463;BME280;17256;43.618;25.336;2023-05-10T05:46:04;101174.16;;;10.34;100.00
30463;BME280;17256;43.618;25.336;2023-05-10T05:48:30;101114.63;;;10.35;100.00
30463;BME280;17256;43.618;25.336;2023-05-10T05:50:56;101060.91;;;9.95;100.00
30463;BME280;17256;43.618;25.336;2023-05-10T05:53:22;101138.25;;;10.59;100.00
30463;BME280;17256;43.618;25.336;2023-05-10T05:55:58;101216.69;;;11.14;100.00
30463;BME280;17256;43.618;25.336;2023-05-10T05:58:24;101188.25;;;10.92;100.00
30463;BME280;17256;43.618;25.336;2023-05-10T06:00:51;101053.88;;;10.53;100.00
30463;BME280;17256;43.618;25.336;2023-05-10T06:03:17;101110.91;;;11.24;100.00
30463;BME280;17256;43.618;25.336;2023-05-10T06:05:43;101184.34;;;11.75;100.00
30463;BME280;17256;43.618;25.336;2023-05-10T06:08:09;101142.66;;;11.92;100.00
30463;BME280;17256;43.618;25.336;2023-05-10T06:10:35;101280.25;;;12.07;100.00
30463;BME280;17256;43.618;25.336;2023-05-10T06:13:00;101117.84;;;11.56;100.00
30463;BME280;17256;43.618;25.336;2023-05-10T06:15:27;101088.59;;;11.34;100.00
30463;BME280;17256;43.618;25.336;2023-05-10T06:17:52;101226.94;;;12.29;100.00
30463;BME280;17256;43.618;25.336;2023-05-10T06:20:18;101074.94;;;12.19;100.00
30463;BME280;17256;43.618;25.336;2023-05-10T06:22:43;101095.94;;;12.76;100.00
30463;BME280;17256;43.618;25.336;2023-05-10T06:25:09;101094.00;;;13.05;100.00
30463;BME280;17256;43.618;25.336;2023-05-10T06:27:35;101064.44;;;13.27;100.00
30463;BME280;17256;43.618;25.336;2023-05-10T06:30:01;101111.09;;;13.76;100.00
30463;BME280;17256;43.618;25.336;2023-05-10T06:32:28;101154.53;;;14.22;100.00
30463;BME280;17256;43.618;25.336;2023-05-10T06:34:53;101326.09;;;15.27;100.00
30463;BME280;17256;43.618;25.336;2023-05-10T06:37:19;101165.22;;;14.38;100.00
30463;BME280;17256;43.618;25.336;2023-05-10T06:39:45;101206.09;;;14.62;100.00
30463;BME280;17256;43.618;25.336;2023-05-10T06:42:11;101065.44;;;13.86;100.00
30463;BME280;17256;43.618;25.336;2023-05-10T06:44:36;101160.72;;;14.37;100.00
30463;BME280;17256;43.618;25.336;2023-05-10T06:47:02;101115.22;;;14.33;100.00
30463;BME280;17256;43.618;25.336;2023-05-10T06:49:27;101081.91;;;14.54;96.92
30463;BME280;17256;43.618;25.336;2023-05-10T06:51:57;101152.88;;;15.00;93.10
30463;BME280;17256;43.618;25.336;2023-05-10T06:54:23;101060.41;;;14.56;88.00
30463;BME280;17256;43.618;25.336;2023-05-10T06:56:48;101316.59;;;16.21;88.98
30463;BME280;17256;43.618;25.336;2023-05-10T06:59:14;101134.34;;;15.14;87.44
30463;BME280;17256;43.618;25.336;2023-05-10T07:01:41;101145.84;;;15.17;87.52
30463;BME280;17256;43.618;25.336;2023-05-10T07:04:07;101172.16;;;15.46;83.90
30463;BME280;17256;43.618;25.336;2023-05-10T07:06:33;101108.09;;;15.36;81.63
30463;BME280;17256;43.618;25.336;2023-05-10T07:08:59;101105.19;;;15.18;82.85
30463;BME280;17256;43.618;25.336;2023-05-10T07:11:25;101209.84;;;16.05;81.41
30463;BME280;17256;43.618;25.336;2023-05-10T07:13:52;101059.63;;;15.20;80.82
30463;BME280;17256;43.618;25.336;2023-05-10T07:16:17;101150.72;;;15.86;78.82
30463;BME280;17256;43.618;25.336;2023-05-10T07:18:43;101094.81;;;15.51;78.04
30463;BME280;17256;43.618;25.336;2023-05-10T07:21:08;101237.44;;;16.31;77.69
30463;BME280;17256;43.618;25.336;2023-05-10T07:23:34;101163.66;;;15.99;73.98
30463;BME280;17256;43.618;25.336;2023-05-10T07:25:59;101273.81;;;16.48;72.08
30463;BME280;17256;43.618;25.336;2023-05-10T07:28:25;101125.97;;;15.91;69.41
30463;BME280;17256;43.618;25.336;2023-05-10T07:30:51;101103.16;;;15.96;67.97
30463;BME280;17256;43.618;25.336;2023-05-10T07:33:16;101318.44;;;17.35;67.31
30463;BME280;17256;43.618;25.336;2023-05-10T07:35:42;101056.41;;;15.75;62.52
30463;BME280;17256;43.618;25.336;2023-05-10T07:38:08;101110.34;;;16.04;58.23
30463;BME280;17256;43.618;25.336;2023-05-10T07:40:33;101098.69;;;15.95;59.57
30463;BME280;17256;43.618;25.336;2023-05-10T07:42:59;101330.31;;;17.48;59.14
30463;BME280;17256;43.618;25.336;2023-05-10T07:45:28;101099.34;;;16.22;58.59
30463;BME280;17256;43.618;25.336;2023-05-10T07:47:54;101131.34;;;16.49;59.45
30463;BME280;17256;43.618;25.336;2023-05-10T07:50:19;101142.63;;;16.79;58.56
30463;BME280;17256;43.618;25.336;2023-05-10T07:52:46;101092.38;;;16.69;56.62
30463;BME280;17256;43.618;25.336;2023-05-10T07:55:12;101000.84;;;15.69;56.95
30463;BME280;17256;43.618;25.336;2023-05-10T07:57:38;101125.03;;;16.60;57.10
30463;BME280;17256;43.618;25.336;2023-05-10T08:00:05;101154.47;;;16.93;57.80
30463;BME280;17256;43.618;25.336;2023-05-10T08:02:38;101111.38;;;16.66;56.59
30463;BME280;17256;43.618;25.336;2023-05-10T08:05:04;101100.22;;;16.47;56.43
30463;BME280;17256;43.618;25.336;2023-05-10T08:07:30;101150.19;;;16.66;57.55
30463;BME280;17256;43.618;25.336;2023-05-10T08:09:56;101139.28;;;16.71;57.06
30463;BME280;17256;43.618;25.336;2023-05-10T08:12:21;101081.94;;;16.15;57.86
30463;BME280;17256;43.618;25.336;2023-05-10T08:14:47;101133.78;;;16.64;57.75
30463;BME280;17256;43.618;25.336;2023-05-10T08:17:13;101086.50;;;16.52;56.19
30463;BME280;17256;43.618;25.336;2023-05-10T08:19:38;101169.16;;;17.18;55.11
30463;BME280;17256;43.618;25.336;2023-05-10T08:22:04;101084.34;;;16.54;54.62
30463;BME280;17256;43.618;25.336;2023-05-10T08:24:29;101311.97;;;17.91;56.34
30463;BME280;17256;43.618;25.336;2023-05-10T08:26:55;101062.66;;;16.76;56.10
30463;BME280;17256;43.618;25.336;2023-05-10T08:29:20;101106.53;;;16.86;55.26
30463;BME280;17256;43.618;25.336;2023-05-10T08:31:46;101177.97;;;17.09;55.21
30463;BME280;17256;43.618;25.336;2023-05-10T08:34:12;101033.06;;;16.20;55.58
30463;BME280;17256;43.618;25.336;2023-05-10T08:36:37;101051.94;;;16.55;56.07
30463;BME280;17256;43.618;25.336;2023-05-10T08:39:03;101072.31;;;16.92;55.78
30463;BME280;17256;43.618;25.336;2023-05-10T08:41:29;101308.91;;;18.17;55.18
30463;BME280;17256;43.618;25.336;2023-05-10T08:43:59;101146.19;;;17.48;54.77
30463;BME280;17256;43.618;25.336;2023-05-10T08:46:28;101091.59;;;17.42;55.97
30463;BME280;17256;43.618;25.336;2023-05-10T08:48:56;101137.84;;;17.85;55.64
30463;BME280;17256;43.618;25.336;2023-05-10T08:51:24;101120.94;;;17.86;54.20
30463;BME280;17256;43.618;25.336;2023-05-10T08:53:53;101117.88;;;18.06;54.02
30463;BME280;17256;43.618;25.336;2023-05-10T08:56:19;101110.44;;;18.30;52.87
30463;BME280;17256;43.618;25.336;2023-05-10T08:58:46;101118.72;;;18.06;49.53
30463;BME280;17256;43.618;25.336;2023-05-10T09:01:13;101040.78;;;17.71;50.14
30463;BME280;17256;43.618;25.336;2023-05-10T09:03:39;101093.84;;;18.11;51.97
30463;BME280;17256;43.618;25.336;2023-05-10T09:06:05;101256.03;;;19.07;51.17
30463;BME280;17256;43.618;25.336;2023-05-10T09:08:32;101087.06;;;18.07;49.75
30463;BME280;17256;43.618;25.336;2023-05-10T09:11:00;101076.50;;;18.39;50.50
30463;BME280;17256;43.618;25.336;2023-05-10T09:13:26;101056.91;;;17.63;50.58
30463;BME280;17256;43.618;25.336;2023-05-10T09:15:53;101089.28;;;18.17;51.61
30463;BME280;17256;43.618;25.336;2023-05-10T09:18:19;101264.06;;;19.27;48.50
30463;BME280;17256;43.618;25.336;2023-05-10T09:20:44;101131.38;;;18.86;50.26
30463;BME280;17256;43.618;25.336;2023-05-10T09:23:10;101069.44;;;18.67;48.49
30463;BME280;17256;43.618;25.336;2023-05-10T09:25:35;101090.69;;;19.20;48.95
30463;BME280;17256;43.618;25.336;2023-05-10T09:28:06;101228.00;;;20.19;47.94
30463;BME280;17256;43.618;25.336;2023-05-10T09:30:32;101059.38;;;19.01;48.19
30463;BME280;17256;43.618;25.336;2023-05-10T09:32:58;101103.97;;;19.41;47.31
30463;BME280;17256;43.618;25.336;2023-05-10T09:35:29;101276.78;;;20.73;46.69
30463;BME280;17256;43.618;25.336;2023-05-10T09:50:29;101263.09;;;20.32;44.41
30463;BME280;17256;43.618;25.336;2023-05-10T09:53:00;101067.56;;;19.08;44.75
30463;BME280;17256;43.618;25.336;2023-05-10T09:55:38;101119.41;;;18.85;45.38
30463;BME280;17256;43.618;25.336;2023-05-10T09:58:05;101028.53;;;18.67;46.74
30463;BME280;17256;43.618;25.336;2023-05-10T10:00:36;101242.13;;;19.89;45.58
30463;BME280;17256;43.618;25.336;2023-05-10T10:03:03;101048.34;;;18.48;45.68
30463;BME280;17256;43.618;25.336;2023-05-10T10:05:34;101143.38;;;18.44;46.04
30463;BME280;17256;43.618;25.336;2023-05-10T10:08:02;101163.94;;;18.85;45.86
30463;BME280;17256;43.618;25.336;2023-05-10T10:10:29;101071.19;;;18.50;46.48
30463;BME280;17256;43.618;25.336;2023-05-10T10:12:55;101039.91;;;18.89;46.58
30463;BME280;17256;43.618;25.336;2023-05-10T10:15:21;101063.94;;;19.07;44.29
30463;BME280;17256;43.618;25.336;2023-05-10T10:17:49;101129.53;;;19.38;43.86
30463;BME280;17256;43.618;25.336;2023-05-10T10:20:15;101040.25;;;18.93;44.04
30463;BME280;17256;43.618;25.336;2023-05-10T10:22:41;101088.00;;;19.25;44.18
30463;BME280;17256;43.618;25.336;2023-05-10T10:25:08;101066.47;;;19.20;44.44
30463;BME280;17256;43.618;25.336;2023-05-10T10:30:48;101234.72;;;20.35;44.40
30463;BME280;17256;43.618;25.336;2023-05-10T10:36:20;101070.72;;;19.23;45.19
30463;BME280;17256;43.618;25.336;2023-05-10T10:41:34;100956.91;;;18.51;44.53
30463;BME280;17256;43.618;25.336;2023-05-10T10:52:37;101071.09;;;19.95;44.93
30463;BME280;17256;43.618;25.336;2023-05-10T10:55:06;100970.00;;;19.54;44.71
30463;BME280;17256;43.618;25.336;2023-05-10T10:57:49;101212.78;;;21.00;41.76
30463;BME280;17256;43.618;25.336;2023-05-10T11:00:44;101218.44;;;20.88;44.08
30463;BME280;17256;43.618;25.336;2023-05-10T11:03:12;101033.72;;;20.08;46.09
30463;BME280;17256;43.618;25.336;2023-05-10T11:05:47;101204.41;;;21.00;42.91
30463;BME280;17256;43.618;25.336;2023-05-10T11:13:45;101040.94;;;19.52;46.83
30463;BME280;17256;43.618;25.336;2023-05-10T11:19:03;101041.69;;;20.04;46.83
30463;BME280;17256;43.618;25.336;2023-05-10T11:21:30;101034.28;;;19.53;47.23
30463;BME280;17256;43.618;25.336;2023-05-10T11:23:57;101197.16;;;20.25;46.80
30463;BME280;17256;43.618;25.336;2023-05-10T11:26:24;101066.59;;;19.25;47.54
30463;BME280;17256;43.618;25.336;2023-05-10T11:28:53;101211.34;;;20.24;47.64
30463;BME280;17256;43.618;25.336;2023-05-10T11:31:26;101047.94;;;19.26;47.67
30463;BME280;17256;43.618;25.336;2023-05-10T11:33:54;101189.53;;;19.81;47.76
30463;BME280;17256;43.618;25.336;2023-05-10T11:36:25;100957.03;;;17.98;47.53
30463;BME280;17256;43.618;25.336;2023-05-10T11:38:52;101001.06;;;18.48;46.93
30463;BME280;17256;43.618;25.336;2023-05-10T11:41:19;100985.47;;;18.47;46.19
30463;BME280;17256;43.618;25.336;2023-05-10T11:43:49;100970.34;;;18.42;44.86
30463;BME280;17256;43.618;25.336;2023-05-10T11:46:15;100966.34;;;18.73;45.19
30463;BME280;17256;43.618;25.336;2023-05-10T11:48:43;101078.19;;;19.86;45.15
30463;BME280;17256;43.618;25.336;2023-05-10T11:51:10;101065.81;;;20.10;44.97
30463;BME280;17256;43.618;25.336;2023-05-10T11:53:37;101027.97;;;20.14;44.78
30463;BME280;17256;43.618;25.336;2023-05-10T11:56:05;100989.91;;;19.91;44.60
30463;BME280;17256;43.618;25.336;2023-05-10T11:58:31;101076.06;;;20.55;45.01
30463;BME280;17256;43.618;25.336;2023-05-10T12:00:59;101176.81;;;21.20;44.86
30463;BME280;17256;43.618;25.336;2023-05-10T12:03:25;101156.34;;;21.15;43.65
30463;BME280;17256;43.618;25.336;2023-05-10T12:05:51;101172.19;;;21.48;42.91
30463;BME280;17256;43.618;25.336;2023-05-10T12:08:21;100943.78;;;20.01;43.79
30463;BME280;17256;43.618;25.336;2023-05-10T12:10:47;101042.25;;;20.51;44.01
30463;BME280;17256;43.618;25.336;2023-05-10T12:13:14;101158.53;;;20.79;45.12
30463;BME280;17256;43.618;25.336;2023-05-10T12:15:41;101153.97;;;20.90;45.53
30463;BME280;17256;43.618;25.336;2023-05-10T12:18:11;100989.91;;;20.25;44.81
30463;BME280;17256;43.618;25.336;2023-05-10T12:20:37;100993.97;;;20.17;44.45
30463;BME280;17256;43.618;25.336;2023-05-10T12:23:04;100907.81;;;19.37;44.75
30463;BME280;17256;43.618;25.336;2023-05-10T12:25:35;100980.09;;;19.32;44.93
30463;BME280;17256;43.618;25.336;2023-05-10T12:28:03;101148.97;;;20.42;45.33
30463;BME280;17256;43.618;25.336;2023-05-10T12:30:31;100962.34;;;19.78;44.01
30463;BME280;17256;43.618;25.336;2023-05-10T12:33:13;101005.47;;;20.04;45.15
30463;BME280;17256;43.618;25.336;2023-05-10T12:35:51;100956.94;;;19.72;45.00
30463;BME280;17256;43.618;25.336;2023-05-10T12:38:33;101032.91;;;20.41;45.49
30463;BME280;17256;43.618;25.336;2023-05-10T12:41:01;101042.66;;;20.26;45.78
30463;BME280;17256;43.618;25.336;2023-05-10T12:43:29;101134.00;;;20.48;46.50
30463;BME280;17256;43.618;25.336;2023-05-10T12:46:04;101020.88;;;19.78;45.76
30463;BME280;17256;43.618;25.336;2023-05-10T12:48:34;100930.44;;;19.12;46.62
30463;BME280;17256;43.618;25.336;2023-05-10T12:51:03;101028.63;;;20.21;46.61
30463;BME280;17256;43.618;25.336;2023-05-10T12:53:38;100851.53;;;19.35;43.07
30463;BME280;17256;43.618;25.336;2023-05-10T12:56:28;100886.44;;;19.88;41.83
30463;BME280;17256;43.618;25.336;2023-05-10T12:58:59;100765.75;;;19.03;42.32
30463;BME280;17256;43.618;25.336;2023-05-10T13:01:43;100884.34;;;19.61;42.83
30463;BME280;17256;43.618;25.336;2023-05-10T13:04:12;100883.63;;;19.54;43.69
30463;BME280;17256;43.618;25.336;2023-05-10T13:06:41;101065.28;;;20.97;43.35
30463;BME280;17256;43.618;25.336;2023-05-10T13:09:14;100844.06;;;19.86;42.42
30463;BME280;17256;43.618;25.336;2023-05-10T13:11:41;100906.44;;;20.18;41.20
30463;BME280;17256;43.618;25.336;2023-05-10T13:14:07;100868.38;;;19.90;41.34
30463;BME280;17256;43.618;25.336;2023-05-10T13:16:33;100875.25;;;20.21;40.91
30463;BME280;17256;43.618;25.336;2023-05-10T13:19:08;100711.25;;;19.58;40.11
30463;BME280;17256;43.618;25.336;2023-05-10T13:22:43;100729.63;;;19.76;41.05
30463;BME280;17256;43.618;25.336;2023-05-10T13:25:44;100945.19;;;21.14;39.75
30463;BME280;17256;43.618;25.336;2023-05-10T13:29:08;100705.47;;;20.03;40.22
30463;BME280;17256;43.618;25.336;2023-05-10T13:32:04;101015.84;;;21.85;39.33
30463;BME280;17256;43.618;25.336;2023-05-10T13:34:50;101075.06;;;22.04;42.38
30463;BME280;17256;43.618;25.336;2023-05-10T13:37:21;100854.16;;;20.69;42.11
30463;BME280;17256;43.618;25.336;2023-05-10T13:40:15;100648.69;;;18.93;41.64
30463;BME280;17256;43.618;25.336;2023-05-10T13:42:41;100876.03;;;20.17;41.64
30463;BME280;17256;43.618;25.336;2023-05-10T13:45:07;100850.94;;;20.00;42.22
30463;BME280;17256;43.618;25.336;2023-05-10T13:47:33;101013.75;;;21.05;42.95
30463;BME280;17256;43.618;25.336;2023-05-10T13:49:59;100878.34;;;19.70;43.64
30463;BME280;17256;43.618;25.336;2023-05-10T13:52:25;100947.34;;;20.13;44.43
30463;BME280;17256;43.618;25.336;2023-05-10T13:54:51;100808.03;;;19.17;44.14
30463;BME280;17256;43.618;25.336;2023-05-10T13:57:20;100970.91;;;20.05;44.37
30463;BME280;17256;43.618;25.336;2023-05-10T13:59:45;100888.00;;;19.50;45.40
30463;BME280;17256;43.618;25.336;2023-05-10T14:02:11;101010.13;;;20.15;46.09
30463;BME280;17256;43.618;25.336;2023-05-10T14:04:38;100858.00;;;18.95;46.97
30463;BME280;17256;43.618;25.336;2023-05-10T14:07:04;100806.59;;;18.69;47.22
30463;BME280;17256;43.618;25.336;2023-05-10T14:09:29;100871.75;;;19.14;46.94
30463;BME280;17256;43.618;25.336;2023-05-10T14:11:55;100856.38;;;19.11;46.89
30463;BME280;17256;43.618;25.336;2023-05-10T14:14:21;100833.13;;;19.34;44.28
30463;BME280;17256;43.618;25.336;2023-05-10T14:16:47;100801.41;;;19.69;43.96
30463;BME280;17256;43.618;25.336;2023-05-10T14:19:12;100815.59;;;19.67;45.43
30463;BME280;17256;43.618;25.336;2023-05-10T14:21:39;100904.94;;;19.77;45.72
30463;BME280;17256;43.618;25.336;2023-05-10T14:24:05;100859.03;;;19.06;46.23